sensor_id;sensor_type;location;lat;lon;timestamp;temperature;humidity
52159;DHT22;38145;53.182;6.284;2022-12-17T00:02:29;-1.30;99.90
52159;DHT22;38145;53.182;6.284;2022-12-17T00:05:13;-1.30;99.90
52159;DHT22;38145;53.182;6.284;2022-12-17T00:07:59;-1.20;99.90
52159;DHT22;38145;53.182;6.284;2022-12-17T00:10:44;-1.30;99.90
52159;DHT22;38145;53.182;6.284;2022-12-17T00:13:30;-1.40;99.90
52159;DHT22;38145;53.182;6.284;2022-12-17T00:16:14;-1.40;99.90
52159;DHT22;38145;53.182;6.284;2022-12-17T00:18:59;-1.30;99.90
52159;DHT22;38145;53.182;6.284;2022-12-17T00:21:47;-1.30;99.90
52159;DHT22;38145;53.182;6.284;2022-12-17T00:24:32;-1.30;99.90
52159;DHT22;38145;53.182;6.284;2022-12-17T00:27:16;-1.30;99.90
52159;DHT22;38145;53.182;6.284;2022-12-17T00:30:00;-1.20;99.90
52159;DHT22;38145;53.182;6.284;2022-12-17T00:32:45;-1.40;99.90
52159;DHT22;38145;53.182;6.284;2022-12-17T00:35:29;-1.40;99.90
52159;DHT22;38145;53.182;6.284;2022-12-17T00:38:15;-1.50;99.90
52159;DHT22;38145;53.182;6.284;2022-12-17T00:41:00;-1.30;99.90
52159;DHT22;38145;53.182;6.284;2022-12-17T00:43:49;-1.30;99.90
52159;DHT22;38145;53.182;6.284;2022-12-17T00:46:34;-1.50;99.90
52159;DHT22;38145;53.182;6.284;2022-12-17T00:49:20;-1.50;99.90
52159;DHT22;38145;53.182;6.284;2022-12-17T00:52:05;-1.30;99.90
52159;DHT22;38145;53.182;6.284;2022-12-17T00:54:53;-1.50;99.90
52159;DHT22;38145;53.182;6.284;2022-12-17T00:57:38;-1.50;99.90
52159;DHT22;38145;53.182;6.284;2022-12-17T01:00:34;-1.50;99.90
52159;DHT22;38145;53.182;6.284;2022-12-17T01:03:19;-1.30;99.90
52159;DHT22;38145;53.182;6.284;2022-12-17T01:06:03;-1.40;99.90
52159;DHT22;38145;53.182;6.284;2022-12-17T01:08:47;-1.30;99.90
52159;DHT22;38145;53.182;6.284;2022-12-17T01:11:32;-1.30;99.90
52159;DHT22;38145;53.182;6.284;2022-12-17T01:14:16;-1.30;99.90
52159;DHT22;38145;53.182;6.284;2022-12-17T01:17:02;-1.40;99.90
52159;DHT22;38145;53.182;6.284;2022-12-17T01:19:47;-1.50;99.90
52159;DHT22;38145;53.182;6.284;2022-12-17T01:22:32;-1.40;99.90
52159;DHT22;38145;53.182;6.284;2022-12-17T01:25:21;-1.60;99.90
52159;DHT22;38145;53.182;6.284;2022-12-17T01:28:05;-1.40;99.90
52159;DHT22;38145;53.182;6.284;2022-12-17T01:30:50;-1.50;99.90
52159;DHT22;38145;53.182;6.284;2022-12-17T01:33:36;-1.50;99.90
52159;DHT22;38145;53.182;6.284;2022-12-17T01:36:20;-1.40;99.90
52159;DHT22;38145;53.182;6.284;2022-12-17T01:39:05;-1.40;99.90
52159;DHT22;38145;53.182;6.284;2022-12-17T01:41:50;-1.50;99.90
52159;DHT22;38145;53.182;6.284;2022-12-17T01:44:51;-1.40;99.90
52159;DHT22;38145;53.182;6.284;2022-12-17T01:47:38;-1.50;99.90
52159;DHT22;38145;53.182;6.284;2022-12-17T01:50:26;-1.50;99.90
52159;DHT22;38145;53.182;6.284;2022-12-17T01:53:11;-1.40;99.90
52159;DHT22;38145;53.182;6.284;2022-12-17T01:55:57;-1.40;99.90
52159;DHT22;38145;53.182;6.284;2022-12-17T01:58:41;-1.50;99.90
52159;DHT22;38145;53.182;6.284;2022-12-17T02:01:26;-1.60;99.90
52159;DHT22;38145;53.182;6.284;2022-12-17T02:04:10;-1.30;99.90
52159;DHT22;38145;53.182;6.284;2022-12-17T02:06:59;-1.60;99.90
52159;DHT22;38145;53.182;6.284;2022-12-17T02:09:49;-1.40;99.90
52159;DHT22;38145;53.182;6.284;2022-12-17T02:12:46;-1.40;99.90
52159;DHT22;38145;53.182;6.284;2022-12-17T02:15:36;-1.40;99.90
52159;DHT22;38145;53.182;6.284;2022-12-17T02:18:23;-1.50;99.90
52159;DHT22;38145;53.182;6.284;2022-12-17T02:21:09;-1.30;99.90
52159;DHT22;38145;53.182;6.284;2022-12-17T02:26:53;-1.40;99.90
52159;DHT22;38145;53.182;6.284;2022-12-17T02:29:39;-1.60;99.90
52159;DHT22;38145;53.182;6.284;2022-12-17T02:32:27;-1.60;99.90
52159;DHT22;38145;53.182;6.284;2022-12-17T02:35:16;-1.40;99.90
52159;DHT22;38145;53.182;6.284;2022-12-17T02:38:16;-1.60;99.90
52159;DHT22;38145;53.182;6.284;2022-12-17T02:41:04;-1.40;99.90
52159;DHT22;38145;53.182;6.284;2022-12-17T02:43:50;-1.60;99.90
52159;DHT22;38145;53.182;6.284;2022-12-17T02:46:37;-1.60;99.90
52159;DHT22;38145;53.182;6.284;2022-12-17T02:49:22;-1.50;99.90
52159;DHT22;38145;53.182;6.284;2022-12-17T02:52:07;-1.60;99.90
52159;DHT22;38145;53.182;6.284;2022-12-17T02:54:53;-1.50;99.90
52159;DHT22;38145;53.182;6.284;2022-12-17T02:57:39;-1.60;99.90
52159;DHT22;38145;53.182;6.284;2022-12-17T03:00:23;-1.50;99.90
52159;DHT22;38145;53.182;6.284;2022-12-17T03:03:08;-1.60;99.90
52159;DHT22;38145;53.182;6.284;2022-12-17T03:05:52;-1.60;99.90
52159;DHT22;38145;53.182;6.284;2022-12-17T03:08:40;-1.50;99.90
52159;DHT22;38145;53.182;6.284;2022-12-17T03:11:28;-1.40;99.90
52159;DHT22;38145;53.182;6.284;2022-12-17T03:14:13;-1.50;99.90
52159;DHT22;38145;53.182;6.284;2022-12-17T03:16:59;-1.50;99.90
52159;DHT22;38145;53.182;6.284;2022-12-17T03:19:46;-1.40;99.90
52159;DHT22;38145;53.182;6.284;2022-12-17T03:22:31;-1.50;99.90
52159;DHT22;38145;53.182;6.284;2022-12-17T03:25:16;-1.40;99.90
52159;DHT22;38145;53.182;6.284;2022-12-17T03:28:02;-1.50;99.90
52159;DHT22;38145;53.182;6.284;2022-12-17T03:30:48;-1.40;99.90
52159;DHT22;38145;53.182;6.284;2022-12-17T03:33:53;-1.40;99.90
52159;DHT22;38145;53.182;6.284;2022-12-17T03:36:37;-1.30;99.90
52159;DHT22;38145;53.182;6.284;2022-12-17T03:39:23;-1.30;99.90
52159;DHT22;38145;53.182;6.284;2022-12-17T03:42:09;-1.50;99.90
52159;DHT22;38145;53.182;6.284;2022-12-17T03:44:53;-1.30;99.90
52159;DHT22;38145;53.182;6.284;2022-12-17T03:47:39;-1.30;99.90
52159;DHT22;38145;53.182;6.284;2022-12-17T03:50:28;-1.40;99.90
52159;DHT22;38145;53.182;6.284;2022-12-17T03:53:14;-1.40;99.90
52159;DHT22;38145;53.182;6.284;2022-12-17T03:55:59;-1.50;99.90
52159;DHT22;38145;53.182;6.284;2022-12-17T03:58:45;-1.30;99.90
52159;DHT22;38145;53.182;6.284;2022-12-17T04:01:30;-1.40;99.90
52159;DHT22;38145;53.182;6.284;2022-12-17T04:04:14;-1.30;99.90
52159;DHT22;38145;53.182;6.284;2022-12-17T04:06:59;-1.40;99.90
52159;DHT22;38145;53.182;6.284;2022-12-17T04:09:44;-1.30;99.90
52159;DHT22;38145;53.182;6.284;2022-12-17T04:12:34;-1.40;99.90
52159;DHT22;38145;53.182;6.284;2022-12-17T04:15:19;-1.20;99.90
52159;DHT22;38145;53.182;6.284;2022-12-17T04:18:03;-1.30;99.90
52159;DHT22;38145;53.182;6.284;2022-12-17T04:20:58;-1.40;99.90
52159;DHT22;38145;53.182;6.284;2022-12-17T04:23:42;-1.40;99.90
52159;DHT22;38145;53.182;6.284;2022-12-17T04:26:27;-1.30;99.90
52159;DHT22;38145;53.182;6.284;2022-12-17T04:29:15;-1.30;99.90
52159;DHT22;38145;53.182;6.284;2022-12-17T04:31:59;-1.40;99.90
52159;DHT22;38145;53.182;6.284;2022-12-17T04:34:43;-1.40;99.90
52159;DHT22;38145;53.182;6.284;2022-12-17T04:37:30;-1.40;99.90
52159;DHT22;38145;53.182;6.284;2022-12-17T04:40:15;-1.30;99.90
52159;DHT22;38145;53.182;6.284;2022-12-17T04:43:04;-1.30;99.90
52159;DHT22;38145;53.182;6.284;2022-12-17T04:45:49;-1.30;99.90
52159;DHT22;38145;53.182;6.284;2022-12-17T04:48:34;-1.40;99.90
52159;DHT22;38145;53.182;6.284;2022-12-17T04:51:19;-1.40;99.90
52159;DHT22;38145;53.182;6.284;2022-12-17T04:54:05;-1.30;99.90
52159;DHT22;38145;53.182;6.284;2022-12-17T04:56:50;-1.30;99.90
52159;DHT22;38145;53.182;6.284;2022-12-17T04:59:36;-1.30;99.90
52159;DHT22;38145;53.182;6.284;2022-12-17T05:02:20;-1.40;99.90
52159;DHT22;38145;53.182;6.284;2022-12-17T05:05:06;-1.20;99.90
52159;DHT22;38145;53.182;6.284;2022-12-17T05:07:52;-1.20;99.90
52159;DHT22;38145;53.182;6.284;2022-12-17T05:10:39;-1.30;99.90
52159;DHT22;38145;53.182;6.284;2022-12-17T05:13:24;-1.30;99.90
52159;DHT22;38145;53.182;6.284;2022-12-17T05:16:14;-1.40;99.90
52159;DHT22;38145;53.182;6.284;2022-12-17T05:18:58;-1.40;99.90
52159;DHT22;38145;53.182;6.284;2022-12-17T05:21:43;-1.20;99.90
52159;DHT22;38145;53.182;6.284;2022-12-17T05:24:27;-1.20;99.90
52159;DHT22;38145;53.182;6.284;2022-12-17T05:27:14;-1.20;99.90
52159;DHT22;38145;53.182;6.284;2022-12-17T05:29:59;-1.40;99.90
52159;DHT22;38145;53.182;6.284;2022-12-17T05:32:43;-1.20;99.90
52159;DHT22;38145;53.182;6.284;2022-12-17T05:35:27;-1.50;99.90
52159;DHT22;38145;53.182;6.284;2022-12-17T05:38:12;-1.40;99.90
52159;DHT22;38145;53.182;6.284;2022-12-17T05:40:58;-1.40;99.90
52159;DHT22;38145;53.182;6.284;2022-12-17T05:43:45;-1.30;99.90
52159;DHT22;38145;53.182;6.284;2022-12-17T05:46:32;-1.40;99.90
52159;DHT22;38145;53.182;6.284;2022-12-17T05:49:16;-1.40;99.90
52159;DHT22;38145;53.182;6.284;2022-12-17T05:52:01;-1.30;99.90
52159;DHT22;38145;53.182;6.284;2022-12-17T05:54:47;-1.30;99.90
52159;DHT22;38145;53.182;6.284;2022-12-17T05:57:47;-1.30;99.90
52159;DHT22;38145;53.182;6.284;2022-12-17T06:00:35;-1.40;99.90
52159;DHT22;38145;53.182;6.284;2022-12-17T06:03:19;-1.50;99.90
52159;DHT22;38145;53.182;6.284;2022-12-17T06:06:03;-1.30;99.90
52159;DHT22;38145;53.182;6.284;2022-12-17T06:08:48;-1.20;99.90
52159;DHT22;38145;53.182;6.284;2022-12-17T06:11:33;-1.30;99.90
52159;DHT22;38145;53.182;6.284;2022-12-17T06:14:18;-1.40;99.90
52159;DHT22;38145;53.182;6.284;2022-12-17T06:17:03;-1.40;99.90
52159;DHT22;38145;53.182;6.284;2022-12-17T06:19:47;-1.20;99.90
52159;DHT22;38145;53.182;6.284;2022-12-17T06:22:31;-1.40;99.90
52159;DHT22;38145;53.182;6.284;2022-12-17T06:25:15;-1.20;99.90
52159;DHT22;38145;53.182;6.284;2022-12-17T06:28:00;-1.20;99.90
52159;DHT22;38145;53.182;6.284;2022-12-17T06:30:50;-1.20;99.90
52159;DHT22;38145;53.182;6.284;2022-12-17T06:33:35;-1.20;99.90
52159;DHT22;38145;53.182;6.284;2022-12-17T06:36:20;-1.40;99.90
52159;DHT22;38145;53.182;6.284;2022-12-17T06:39:05;-1.40;99.90
52159;DHT22;38145;53.182;6.284;2022-12-17T06:41:50;-1.30;99.90
52159;DHT22;38145;53.182;6.284;2022-12-17T06:44:35;-1.40;99.90
52159;DHT22;38145;53.182;6.284;2022-12-17T06:47:19;-1.20;99.90
52159;DHT22;38145;53.182;6.284;2022-12-17T06:50:04;-1.40;99.90
52159;DHT22;38145;53.182;6.284;2022-12-17T06:52:58;-1.30;99.90
52159;DHT22;38145;53.182;6.284;2022-12-17T06:55:47;-1.20;99.90
52159;DHT22;38145;53.182;6.284;2022-12-17T06:58:31;-1.20;99.90
52159;DHT22;38145;53.182;6.284;2022-12-17T07:01:15;-1.30;99.90
52159;DHT22;38145;53.182;6.284;2022-12-17T07:03:59;-1.30;99.90
52159;DHT22;38145;53.182;6.284;2022-12-17T07:06:43;-1.30;99.90
52159;DHT22;38145;53.182;6.284;2022-12-17T07:09:29;-1.20;99.90
52159;DHT22;38145;53.182;6.284;2022-12-17T07:12:23;-1.20;99.90
52159;DHT22;38145;53.182;6.284;2022-12-17T07:15:08;-1.30;99.90
52159;DHT22;38145;53.182;6.284;2022-12-17T07:17:55;-1.30;99.90
52159;DHT22;38145;53.182;6.284;2022-12-17T07:20:40;-1.40;99.90
52159;DHT22;38145;53.182;6.284;2022-12-17T07:23:24;-1.20;99.90
52159;DHT22;38145;53.182;6.284;2022-12-17T07:26:24;-1.40;99.90
52159;DHT22;38145;53.182;6.284;2022-12-17T07:29:09;-1.40;99.90
52159;DHT22;38145;53.182;6.284;2022-12-17T07:31:56;-1.40;99.90
52159;DHT22;38145;53.182;6.284;2022-12-17T07:34:40;-1.30;99.90
52159;DHT22;38145;53.182;6.284;2022-12-17T07:37:28;-1.40;99.90
52159;DHT22;38145;53.182;6.284;2022-12-17T07:40:14;-1.30;99.90
52159;DHT22;38145;53.182;6.284;2022-12-17T07:42:59;-1.50;99.90
52159;DHT22;38145;53.182;6.284;2022-12-17T07:45:43;-1.50;99.90
52159;DHT22;38145;53.182;6.284;2022-12-17T07:48:29;-1.50;99.90
52159;DHT22;38145;53.182;6.284;2022-12-17T07:51:13;-1.50;99.90
52159;DHT22;38145;53.182;6.284;2022-12-17T07:53:57;-1.40;99.90
52159;DHT22;38145;53.182;6.284;2022-12-17T07:56:48;-1.50;99.90
52159;DHT22;38145;53.182;6.284;2022-12-17T07:59:33;-1.40;99.90
52159;DHT22;38145;53.182;6.284;2022-12-17T08:02:26;-1.40;99.90
52159;DHT22;38145;53.182;6.284;2022-12-17T08:05:10;-1.30;99.90
52159;DHT22;38145;53.182;6.284;2022-12-17T08:07:55;-1.30;99.90
52159;DHT22;38145;53.182;6.284;2022-12-17T08:10:42;-1.50;99.90
52159;DHT22;38145;53.182;6.284;2022-12-17T08:13:26;-1.40;99.90
52159;DHT22;38145;53.182;6.284;2022-12-17T08:16:11;-1.50;99.90
52159;DHT22;38145;53.182;6.284;2022-12-17T08:18:56;-1.40;99.90
52159;DHT22;38145;53.182;6.284;2022-12-17T08:21:43;-1.40;99.90
52159;DHT22;38145;53.182;6.284;2022-12-17T08:24:28;-1.30;99.90
52159;DHT22;38145;53.182;6.284;2022-12-17T08:27:15;-1.40;99.90
52159;DHT22;38145;53.182;6.284;2022-12-17T08:30:00;-1.40;99.90
52159;DHT22;38145;53.182;6.284;2022-12-17T08:32:45;-1.50;99.90
52159;DHT22;38145;53.182;6.284;2022-12-17T08:35:29;-1.30;99.90
52159;DHT22;38145;53.182;6.284;2022-12-17T08:38:15;-1.30;99.90
52159;DHT22;38145;53.182;6.284;2022-12-17T08:41:00;-1.30;99.90
52159;DHT22;38145;53.182;6.284;2022-12-17T08:43:44;-1.50;99.90
52159;DHT22;38145;53.182;6.284;2022-12-17T08:46:28;-1.50;99.90
52159;DHT22;38145;53.182;6.284;2022-12-17T08:49:14;-1.30;99.90
52159;DHT22;38145;53.182;6.284;2022-12-17T08:51:58;-1.40;99.90
52159;DHT22;38145;53.182;6.284;2022-12-17T08:54:43;-1.30;99.90
52159;DHT22;38145;53.182;6.284;2022-12-17T08:57:28;-1.30;99.90
52159;DHT22;38145;53.182;6.284;2022-12-17T09:00:14;-1.30;99.90
52159;DHT22;38145;53.182;6.284;2022-12-17T09:02:59;-1.30;99.90
52159;DHT22;38145;53.182;6.284;2022-12-17T09:05:45;-1.40;99.90
52159;DHT22;38145;53.182;6.284;2022-12-17T09:08:48;-1.40;99.90
52159;DHT22;38145;53.182;6.284;2022-12-17T09:11:32;-1.50;99.90
52159;DHT22;38145;53.182;6.284;2022-12-17T09:14:19;-1.40;99.90
52159;DHT22;38145;53.182;6.284;2022-12-17T09:17:04;-1.40;99.90
52159;DHT22;38145;53.182;6.284;2022-12-17T09:19:48;-1.40;99.90
52159;DHT22;38145;53.182;6.284;2022-12-17T09:22:32;-1.30;99.90
52159;DHT22;38145;53.182;6.284;2022-12-17T09:25:16;-1.50;99.90
52159;DHT22;38145;53.182;6.284;2022-12-17T09:28:02;-1.40;99.90
52159;DHT22;38145;53.182;6.284;2022-12-17T09:30:47;-1.30;99.90
52159;DHT22;38145;53.182;6.284;2022-12-17T09:33:31;-1.30;99.90
52159;DHT22;38145;53.182;6.284;2022-12-17T09:36:17;-1.10;99.90
52159;DHT22;38145;53.182;6.284;2022-12-17T09:39:01;-1.00;99.90
52159;DHT22;38145;53.182;6.284;2022-12-17T09:41:57;-1.00;99.90
52159;DHT22;38145;53.182;6.284;2022-12-17T09:50:14;-0.70;99.90
52159;DHT22;38145;53.182;6.284;2022-12-17T09:52:59;-0.70;99.90
52159;DHT22;38145;53.182;6.284;2022-12-17T09:55:46;-0.60;99.90
52159;DHT22;38145;53.182;6.284;2022-12-17T09:58:39;-0.50;99.90
52159;DHT22;38145;53.182;6.284;2022-12-17T10:01:25;-0.50;99.90
52159;DHT22;38145;53.182;6.284;2022-12-17T10:04:19;-0.40;99.90
52159;DHT22;38145;53.182;6.284;2022-12-17T10:07:04;-0.50;99.90
52159;DHT22;38145;53.182;6.284;2022-12-17T10:09:52;-0.50;99.90
52159;DHT22;38145;53.182;6.284;2022-12-17T10:12:36;-0.40;99.90
52159;DHT22;38145;53.182;6.284;2022-12-17T10:15:22;-0.30;99.90
52159;DHT22;38145;53.182;6.284;2022-12-17T10:18:08;-0.30;99.90
52159;DHT22;38145;53.182;6.284;2022-12-17T10:20:57;-0.20;99.90
52159;DHT22;38145;53.182;6.284;2022-12-17T10:23:42;-0.10;99.90
52159;DHT22;38145;53.182;6.284;2022-12-17T10:26:29;0.00;36.90
52159;DHT22;38145;53.182;6.284;2022-12-17T10:32:16;0.00;1.00
52159;DHT22;38145;53.182;6.284;2022-12-17T10:35:17;0.00;1.00
52159;DHT22;38145;53.182;6.284;2022-12-17T10:38:10;0.10;99.90
52159;DHT22;38145;53.182;6.284;2022-12-17T10:40:54;0.10;99.90
52159;DHT22;38145;53.182;6.284;2022-12-17T10:43:41;0.00;99.90
52159;DHT22;38145;53.182;6.284;2022-12-17T10:46:27;0.10;99.90
52159;DHT22;38145;53.182;6.284;2022-12-17T10:49:14;0.10;1.00
52159;DHT22;38145;53.182;6.284;2022-12-17T10:52:00;0.00;1.00
52159;DHT22;38145;53.182;6.284;2022-12-17T10:54:53;-0.10;1.00
52159;DHT22;38145;53.182;6.284;2022-12-17T10:57:38;-0.20;1.00
52159;DHT22;38145;53.182;6.284;2022-12-17T11:00:25;-0.20;1.00
52159;DHT22;38145;53.182;6.284;2022-12-17T11:03:25;-0.10;1.00
52159;DHT22;38145;53.182;6.284;2022-12-17T11:06:12;-0.10;81.10
52159;DHT22;38145;53.182;6.284;2022-12-17T11:08:57;-0.10;99.90
52159;DHT22;38145;53.182;6.284;2022-12-17T11:11:43;0.00;74.20
52159;DHT22;38145;53.182;6.284;2022-12-17T11:14:28;0.00;50.30
52159;DHT22;38145;53.182;6.284;2022-12-17T11:17:15;0.00;99.90
52159;DHT22;38145;53.182;6.284;2022-12-17T11:20:05;0.10;99.90
52159;DHT22;38145;53.182;6.284;2022-12-17T11:22:51;0.10;99.90
52159;DHT22;38145;53.182;6.284;2022-12-17T11:25:39;0.20;22.20
52159;DHT22;38145;53.182;6.284;2022-12-17T11:28:26;0.10;1.00
52159;DHT22;38145;53.182;6.284;2022-12-17T11:34:01;0.00;99.90
52159;DHT22;38145;53.182;6.284;2022-12-17T11:36:52;0.00;99.90
52159;DHT22;38145;53.182;6.284;2022-12-17T11:39:40;0.00;99.90
52159;DHT22;38145;53.182;6.284;2022-12-17T11:42:35;0.00;99.90
52159;DHT22;38145;53.182;6.284;2022-12-17T11:45:27;0.20;1.00
52159;DHT22;38145;53.182;6.284;2022-12-17T11:48:15;0.10;99.90
52159;DHT22;38145;53.182;6.284;2022-12-17T11:53:58;0.20;99.90
52159;DHT22;38145;53.182;6.284;2022-12-17T11:56:51;0.20;99.90
52159;DHT22;38145;53.182;6.284;2022-12-17T11:59:40;0.30;1.00
52159;DHT22;38145;53.182;6.284;2022-12-17T12:02:33;0.40;99.90
52159;DHT22;38145;53.182;6.284;2022-12-17T12:08:12;0.60;99.90
52159;DHT22;38145;53.182;6.284;2022-12-17T12:11:04;0.50;99.90
52159;DHT22;38145;53.182;6.284;2022-12-17T12:13:57;0.50;81.60
52159;DHT22;38145;53.182;6.284;2022-12-17T12:17:05;0.50;99.90
52159;DHT22;38145;53.182;6.284;2022-12-17T12:19:56;0.50;28.80
52159;DHT22;38145;53.182;6.284;2022-12-17T12:22:47;0.30;91.30
52159;DHT22;38145;53.182;6.284;2022-12-17T12:25:37;0.30;99.90
52159;DHT22;38145;53.182;6.284;2022-12-17T12:28:26;0.40;99.90
52159;DHT22;38145;53.182;6.284;2022-12-17T12:34:02;0.50;99.90
52159;DHT22;38145;53.182;6.284;2022-12-17T12:36:49;0.40;99.90
52159;DHT22;38145;53.182;6.284;2022-12-17T12:39:43;0.40;99.90
52159;DHT22;38145;53.182;6.284;2022-12-17T12:42:36;0.50;99.90
52159;DHT22;38145;53.182;6.284;2022-12-17T12:45:29;0.60;99.90
52159;DHT22;38145;53.182;6.284;2022-12-17T12:51:00;0.60;82.30
52159;DHT22;38145;53.182;6.284;2022-12-17T12:53:59;0.70;78.90
52159;DHT22;38145;53.182;6.284;2022-12-17T12:56:46;0.70;92.60
52159;DHT22;38145;53.182;6.284;2022-12-17T12:59:31;0.70;92.00
52159;DHT22;38145;53.182;6.284;2022-12-17T13:02:23;0.60;1.00
52159;DHT22;38145;53.182;6.284;2022-12-17T13:05:23;0.70;1.00
52159;DHT22;38145;53.182;6.284;2022-12-17T13:08:01;0.60;1.00
52159;DHT22;38145;53.182;6.284;2022-12-17T13:10:28;0.70;11.20
52159;DHT22;38145;53.182;6.284;2022-12-17T13:12:55;0.60;80.80
52159;DHT22;38145;53.182;6.284;2022-12-17T13:15:24;0.70;68.70
52159;DHT22;38145;53.182;6.284;2022-12-17T13:17:56;0.70;1.00
52159;DHT22;38145;53.182;6.284;2022-12-17T13:20:27;0.60;1.00
52159;DHT22;38145;53.182;6.284;2022-12-17T13:25:36;0.60;1.00
52159;DHT22;38145;53.182;6.284;2022-12-17T13:28:03;0.60;80.30
52159;DHT22;38145;53.182;6.284;2022-12-17T13:30:34;0.60;99.90
52159;DHT22;38145;53.182;6.284;2022-12-17T13:33:04;0.60;99.90
52159;DHT22;38145;53.182;6.284;2022-12-17T13:38:12;0.50;82.20
52159;DHT22;38145;53.182;6.284;2022-12-17T13:43:15;0.50;99.90
52159;DHT22;38145;53.182;6.284;2022-12-17T13:45:41;0.40;99.90
52159;DHT22;38145;53.182;6.284;2022-12-17T13:48:15;0.40;99.90
52159;DHT22;38145;53.182;6.284;2022-12-17T13:50:51;0.40;99.90
52159;DHT22;38145;53.182;6.284;2022-12-17T13:53:17;0.40;99.90
52159;DHT22;38145;53.182;6.284;2022-12-17T13:55:50;0.40;99.90
52159;DHT22;38145;53.182;6.284;2022-12-17T13:58:26;0.30;99.90
52159;DHT22;38145;53.182;6.284;2022-12-17T14:01:04;0.30;99.90
52159;DHT22;38145;53.182;6.284;2022-12-17T14:03:30;0.30;99.90
52159;DHT22;38145;53.182;6.284;2022-12-17T14:05:57;0.30;99.90
52159;DHT22;38145;53.182;6.284;2022-12-17T14:08:27;0.30;99.90
52159;DHT22;38145;53.182;6.284;2022-12-17T14:10:53;0.20;99.90
52159;DHT22;38145;53.182;6.284;2022-12-17T14:13:40;0.20;99.90
52159;DHT22;38145;53.182;6.284;2022-12-17T14:16:08;0.20;99.90
52159;DHT22;38145;53.182;6.284;2022-12-17T14:18:39;0.10;99.90
52159;DHT22;38145;53.182;6.284;2022-12-17T14:21:08;0.10;99.90
52159;DHT22;38145;53.182;6.284;2022-12-17T14:23:35;0.00;1.00
52159;DHT22;38145;53.182;6.284;2022-12-17T14:26:03;0.10;1.00
52159;DHT22;38145;53.182;6.284;2022-12-17T14:28:36;0.00;1.00
52159;DHT22;38145;53.182;6.284;2022-12-17T14:31:06;0.00;1.00
52159;DHT22;38145;53.182;6.284;2022-12-17T14:33:33;0.00;1.00
52159;DHT22;38145;53.182;6.284;2022-12-17T14:36:00;-0.20;1.00
52159;DHT22;38145;53.182;6.284;2022-12-17T14:38:29;-0.30;1.00
52159;DHT22;38145;53.182;6.284;2022-12-17T14:41:00;-0.30;1.00
52159;DHT22;38145;53.182;6.284;2022-12-17T14:43:27;-0.30;1.00
52159;DHT22;38145;53.182;6.284;2022-12-17T14:45:56;-0.30;1.00
52159;DHT22;38145;53.182;6.284;2022-12-17T14:48:43;-0.40;2.50
52159;DHT22;38145;53.182;6.284;2022-12-17T14:51:41;-0.50;14.30
52159;DHT22;38145;53.182;6.284;2022-12-17T14:54:16;-0.40;46.30
52159;DHT22;38145;53.182;6.284;2022-12-17T14:56:44;-0.50;99.90
52159;DHT22;38145;53.182;6.284;2022-12-17T14:59:28;-0.50;99.90
52159;DHT22;38145;53.182;6.284;2022-12-17T15:01:55;-0.60;99.90
52159;DHT22;38145;53.182;6.284;2022-12-17T15:04:23;-0.60;99.90
52159;DHT22;38145;53.182;6.284;2022-12-17T15:06:49;-0.60;99.90
52159;DHT22;38145;53.182;6.284;2022-12-17T15:09:20;-0.70;99.90
52159;DHT22;38145;53.182;6.284;2022-12-17T15:11:46;-0.70;99.90
52159;DHT22;38145;53.182;6.284;2022-12-17T15:14:15;-0.70;99.90
52159;DHT22;38145;53.182;6.284;2022-12-17T15:16:44;-0.70;99.90
52159;DHT22;38145;53.182;6.284;2022-12-17T15:19:10;-0.70;99.90
52159;DHT22;38145;53.182;6.284;2022-12-17T15:21:36;-0.70;99.90
52159;DHT22;38145;53.182;6.284;2022-12-17T15:24:04;-0.80;99.90
52159;DHT22;38145;53.182;6.284;2022-12-17T15:26:32;-0.90;99.90
52159;DHT22;38145;53.182;6.284;2022-12-17T15:29:04;-0.90;99.90
52159;DHT22;38145;53.182;6.284;2022-12-17T15:31:38;-0.90;99.90
52159;DHT22;38145;53.182;6.284;2022-12-17T15:34:05;-0.90;99.90
52159;DHT22;38145;53.182;6.284;2022-12-17T15:36:33;-0.90;99.90
52159;DHT22;38145;53.182;6.284;2022-12-17T15:39:03;-1.00;99.90
52159;DHT22;38145;53.182;6.284;2022-12-17T15:41:32;-1.00;99.90
52159;DHT22;38145;53.182;6.284;2022-12-17T15:44:17;-1.00;99.90
52159;DHT22;38145;53.182;6.284;2022-12-17T15:46:44;-1.10;99.90
52159;DHT22;38145;53.182;6.284;2022-12-17T15:49:12;-1.10;99.90
52159;DHT22;38145;53.182;6.284;2022-12-17T15:51:38;-1.10;99.90
52159;DHT22;38145;53.182;6.284;2022-12-17T15:54:07;-1.20;99.90
52159;DHT22;38145;53.182;6.284;2022-12-17T15:56:34;-1.20;99.90
52159;DHT22;38145;53.182;6.284;2022-12-17T15:59:02;-1.20;1.00
52159;DHT22;38145;53.182;6.284;2022-12-17T16:01:33;-1.20;1.00
52159;DHT22;38145;53.182;6.284;2022-12-17T16:04:00;-1.20;1.00
52159;DHT22;38145;53.182;6.284;2022-12-17T16:06:28;-1.30;1.00
52159;DHT22;38145;53.182;6.284;2022-12-17T16:08:55;-1.20;1.00
52159;DHT22;38145;53.182;6.284;2022-12-17T16:11:23;-1.30;1.00
52159;DHT22;38145;53.182;6.284;2022-12-17T16:13:53;-1.30;1.00
52159;DHT22;38145;53.182;6.284;2022-12-17T16:16:21;-1.30;1.00
52159;DHT22;38145;53.182;6.284;2022-12-17T16:18:49;-1.40;1.00
52159;DHT22;38145;53.182;6.284;2022-12-17T16:21:27;-1.30;1.00
52159;DHT22;38145;53.182;6.284;2022-12-17T16:23:56;-1.50;1.00
52159;DHT22;38145;53.182;6.284;2022-12-17T16:26:24;-1.40;1.00
52159;DHT22;38145;53.182;6.284;2022-12-17T16:28:52;-1.50;1.00
52159;DHT22;38145;53.182;6.284;2022-12-17T16:31:21;-1.50;1.00
52159;DHT22;38145;53.182;6.284;2022-12-17T16:33:54;-1.50;1.00
52159;DHT22;38145;53.182;6.284;2022-12-17T16:36:21;-1.50;1.00
52159;DHT22;38145;53.182;6.284;2022-12-17T16:38:49;-1.60;1.00
52159;DHT22;38145;53.182;6.284;2022-12-17T16:41:31;-1.60;1.00
52159;DHT22;38145;53.182;6.284;2022-12-17T16:44:00;-1.70;1.00
52159;DHT22;38145;53.182;6.284;2022-12-17T16:46:28;-1.60;1.00
52159;DHT22;38145;53.182;6.284;2022-12-17T16:48:57;-1.60;1.00
52159;DHT22;38145;53.182;6.284;2022-12-17T16:51:27;-1.80;1.00
52159;DHT22;38145;53.182;6.284;2022-12-17T16:53:57;-1.80;1.00
52159;DHT22;38145;53.182;6.284;2022-12-17T16:56:27;-1.70;1.00
52159;DHT22;38145;53.182;6.284;2022-12-17T16:59:01;-1.80;1.00
52159;DHT22;38145;53.182;6.284;2022-12-17T17:01:29;-1.90;1.00
52159;DHT22;38145;53.182;6.284;2022-12-17T17:03:58;-1.90;1.00
52159;DHT22;38145;53.182;6.284;2022-12-17T17:06:27;-1.90;1.00
52159;DHT22;38145;53.182;6.284;2022-12-17T17:08:55;-1.80;1.00
52159;DHT22;38145;53.182;6.284;2022-12-17T17:11:25;-1.90;1.00
52159;DHT22;38145;53.182;6.284;2022-12-17T17:13:53;-1.90;1.00
52159;DHT22;38145;53.182;6.284;2022-12-17T17:16:22;-1.90;1.00
52159;DHT22;38145;53.182;6.284;2022-12-17T17:18:50;-1.90;1.00
52159;DHT22;38145;53.182;6.284;2022-12-17T17:23:50;-1.90;11.60
52159;DHT22;38145;53.182;6.284;2022-12-17T17:26:20;-2.00;8.00
52159;DHT22;38145;53.182;6.284;2022-12-17T17:28:48;-2.00;15.50
52159;DHT22;38145;53.182;6.284;2022-12-17T17:31:21;-2.10;11.10
52159;DHT22;38145;53.182;6.284;2022-12-17T17:33:52;-2.30;6.20
52159;DHT22;38145;53.182;6.284;2022-12-17T17:36:26;-2.10;1.00
52159;DHT22;38145;53.182;6.284;2022-12-17T17:38:57;-2.00;1.00
52159;DHT22;38145;53.182;6.284;2022-12-17T17:41:27;-2.10;1.00
52159;DHT22;38145;53.182;6.284;2022-12-17T17:44:00;-2.00;1.00
52159;DHT22;38145;53.182;6.284;2022-12-17T17:46:41;-2.10;1.00
52159;DHT22;38145;53.182;6.284;2022-12-17T17:49:12;-2.20;1.00